createdAt,value
2023-06-05T00:00:27.961Z,3.25
2023-06-05T00:02:58.386Z,3.00
2023-06-05T00:05:28.619Z,3.25
2023-06-05T00:07:59.386Z,2.00
2023-06-05T00:10:29.668Z,4.25
2023-06-05T00:13:00.020Z,1.75
2023-06-05T00:15:30.830Z,4.00
2023-06-05T00:18:00.976Z,3.50
2023-06-05T00:20:31.439Z,4.00
2023-06-05T00:23:01.939Z,3.50
2023-06-05T00:25:32.926Z,4.00
2023-06-05T00:28:02.984Z,3.25
2023-06-05T00:30:33.319Z,3.25
2023-06-05T00:33:03.838Z,4.00
2023-06-05T00:35:34.219Z,3.25
2023-06-05T00:38:04.357Z,2.00
2023-06-05T00:40:35.036Z,4.25
2023-06-05T00:43:05.383Z,4.50
2023-06-05T00:45:35.838Z,4.00
2023-06-05T00:48:06.265Z,3.50
2023-06-05T00:50:57.470Z,4.00
2023-06-05T00:53:28.861Z,4.00
2023-06-05T00:55:59.808Z,4.00
2023-06-05T00:58:32.035Z,4.50
2023-06-05T01:01:03.614Z,4.00
2023-06-05T01:03:35.088Z,4.50
2023-06-05T01:06:05.342Z,5.00
2023-06-05T01:08:40.216Z,5.25
2023-06-05T01:11:19.105Z,5.00
2023-06-05T01:16:49.601Z,4.50
2023-06-05T01:19:20.657Z,4.00
2023-06-05T01:21:50.770Z,3.00
2023-06-05T01:24:21.193Z,3.75
2023-06-05T01:27:06.319Z,4.00
2023-06-05T01:29:55.948Z,4.50
2023-06-05T01:35:16.395Z,3.50
2023-06-05T01:37:48.594Z,3.00
2023-06-05T01:40:24.437Z,3.75
2023-06-05T01:42:56.589Z,2.00
2023-06-05T01:45:27.596Z,4.00
2023-06-05T01:47:58.716Z,3.00
2023-06-05T01:50:29.151Z,5.00
2023-06-05T01:52:59.243Z,4.50
2023-06-05T01:55:29.571Z,6.25
2023-06-05T01:57:59.818Z,6.00
2023-06-05T02:00:30.078Z,7.25
2023-06-05T02:03:00.346Z,8.50
2023-06-05T02:05:30.959Z,7.25
2023-06-05T02:08:02.356Z,6.75
2023-06-05T02:10:33.429Z,7.25
2023-06-05T02:13:03.674Z,9.00
2023-06-05T02:15:33.799Z,6.25
2023-06-05T02:18:05.046Z,7.50
2023-06-05T02:20:36.250Z,9.00
2023-06-05T02:23:06.689Z,9.25
2023-06-05T02:25:37.220Z,8.00
2023-06-05T02:28:07.601Z,9.25
2023-06-05T02:30:37.906Z,9.50
2023-06-05T02:33:08.398Z,7.75
2023-06-05T02:35:39.449Z,9.75
2023-06-05T02:38:15.966Z,7.50
2023-06-05T02:40:46.222Z,8.75
2023-06-05T02:43:16.814Z,9.25
2023-06-05T02:45:47.018Z,9.50
2023-06-05T02:48:17.385Z,9.25
2023-06-05T02:50:47.798Z,15.50
2023-06-05T02:53:18.356Z,12.50
2023-06-05T02:55:48.849Z,14.75
2023-06-05T02:58:20.600Z,16.00
2023-06-05T03:00:50.874Z,16.75
2023-06-05T03:03:21.171Z,16.50
2023-06-05T03:05:51.425Z,16.25
2023-06-05T03:08:21.608Z,21.00
2023-06-05T03:10:52.008Z,19.25
2023-06-05T03:13:22.668Z,23.25
2023-06-05T03:15:52.866Z,18.75
2023-06-05T03:18:23.128Z,17.50
2023-06-05T03:20:54.572Z,26.50
2023-06-05T03:23:45.718Z,21.25
2023-06-05T03:26:17.457Z,23.50
2023-06-05T03:28:47.863Z,24.50
2023-06-05T03:31:18.445Z,24.00
2023-06-05T03:33:48.724Z,25.00
2023-06-05T03:36:18.979Z,25.25
2023-06-05T03:38:49.106Z,24.50
2023-06-05T03:41:19.484Z,22.75
2023-06-05T03:43:50.074Z,20.00
2023-06-05T03:46:21.105Z,25.75
2023-06-05T03:48:51.513Z,23.75
2023-06-05T03:51:21.773Z,23.25
2023-06-05T03:53:52.141Z,16.25
2023-06-05T03:56:22.384Z,15.00
2023-06-05T03:58:52.909Z,23.00
2023-06-05T04:01:23.234Z,16.75
2023-06-05T04:03:54.555Z,22.75
2023-06-05T04:06:24.838Z,17.00
2023-06-05T04:08:54.982Z,17.25
2023-06-05T04:11:25.237Z,20.75
2023-06-05T04:14:16.320Z,23.25
2023-06-05T04:16:46.725Z,22.25
2023-06-05T04:19:17.187Z,19.75
2023-06-05T04:21:48.075Z,16.25
2023-06-05T04:24:18.500Z,18.50
2023-06-05T04:26:48.731Z,11.00
2023-06-05T04:29:19.023Z,12.75
2023-06-05T04:31:49.387Z,17.75
2023-06-05T04:34:20.048Z,14.75
2023-06-05T04:36:50.153Z,12.00
2023-06-05T04:39:20.400Z,12.00
2023-06-05T04:42:03.085Z,11.00
2023-06-05T04:44:22.315Z,11.25
2023-06-05T04:46:52.607Z,10.25
2023-06-05T04:49:23.971Z,13.25
2023-06-05T04:51:54.089Z,11.75
2023-06-05T04:54:24.377Z,10.00
2023-06-05T04:56:54.521Z,8.25
2023-06-05T04:59:24.846Z,12.80
2023-06-05T05:01:55.172Z,9.80
2023-06-05T05:04:25.510Z,12.40
2023-06-05T05:06:56.047Z,11.20
2023-06-05T05:09:26.579Z,12.00
2023-06-05T05:11:56.914Z,14.50
2023-06-05T05:14:28.300Z,13.40
2023-06-05T05:16:58.852Z,13.80
2023-06-05T05:19:29.352Z,13.60
2023-06-05T05:21:59.694Z,22.50
2023-06-05T05:24:29.835Z,13.20
2023-06-05T05:27:01.633Z,18.80
2023-06-05T05:29:32.426Z,18.60
2023-06-05T05:32:02.680Z,21.60
2023-06-05T05:34:33.222Z,15.60
2023-06-05T05:37:24.855Z,18.40
2023-06-05T05:43:51.843Z,16.40
2023-06-05T05:46:30.252Z,17.00
2023-06-05T05:50:24.221Z,19.40
2023-06-05T05:54:57.092Z,23.60
2023-06-05T05:57:27.499Z,21.40
2023-06-05T05:59:57.940Z,20.20
2023-06-05T06:02:28.277Z,19.80
2023-06-05T06:04:58.764Z,22.20
2023-06-05T06:07:29.280Z,13.20
2023-06-05T06:09:59.913Z,19.00
2023-06-05T06:12:30.521Z,16.40
2023-06-05T06:15:00.863Z,14.60
2023-06-05T06:17:31.405Z,15.40
2023-06-05T06:20:01.799Z,13.40
2023-06-05T06:22:32.116Z,17.00
2023-06-05T06:25:02.358Z,10.80
2023-06-05T06:27:35.744Z,14.00
2023-06-05T06:32:44.595Z,21.00
2023-06-05T06:35:14.776Z,14.40
2023-06-05T06:37:45.242Z,8.40
2023-06-05T06:40:16.026Z,11.20
2023-06-05T06:42:46.234Z,12.00
2023-06-05T06:45:16.967Z,12.20
2023-06-05T06:47:59.125Z,7.20
2023-06-05T06:50:19.439Z,7.20
2023-06-05T06:52:49.928Z,5.00
2023-06-05T06:55:20.606Z,3.00
2023-06-05T06:57:51.146Z,4.40
2023-06-05T07:00:21.534Z,6.00
2023-06-05T07:02:52.369Z,3.80
2023-06-05T07:05:22.851Z,2.00
2023-06-05T07:07:53.456Z,2.40
2023-06-05T07:10:24.419Z,4.20
2023-06-05T07:12:54.669Z,3.00
2023-06-05T07:15:25.391Z,2.40
2023-06-05T07:17:55.539Z,4.80
2023-06-05T07:20:25.777Z,3.00
2023-06-05T07:22:56.581Z,4.00
2023-06-05T07:25:26.735Z,3.20
2023-06-05T07:27:57.256Z,1.40
2023-06-05T07:30:28.214Z,3.00
2023-06-05T07:32:58.800Z,3.00
2023-06-05T07:35:28.849Z,1.40
2023-06-05T07:37:59.334Z,1.40
2023-06-05T07:40:29.579Z,2.20
2023-06-05T07:43:02.802Z,3.00
2023-06-05T07:45:33.881Z,2.40
2023-06-05T07:48:04.493Z,2.60
2023-06-05T07:50:34.878Z,3.60
2023-06-05T07:53:05.505Z,4.00
2023-06-05T07:55:36.289Z,9.20
2023-06-05T07:58:07.065Z,4.00
2023-06-05T08:00:37.292Z,1.80
2023-06-05T08:03:08.033Z,2.20
2023-06-05T08:05:40.764Z,2.80
2023-06-05T08:08:11.456Z,4.00
2023-06-05T08:10:42.245Z,4.00
2023-06-05T08:13:12.971Z,3.00
2023-06-05T08:15:44.018Z,4.00
2023-06-05T08:18:15.727Z,5.80
2023-06-05T08:20:45.968Z,3.00
2023-06-05T08:23:16.459Z,4.40
2023-06-05T08:25:46.906Z,4.40
2023-06-05T08:28:17.460Z,6.00
2023-06-05T08:30:48.045Z,3.60
2023-06-05T08:33:20.459Z,3.40
2023-06-05T08:35:50.392Z,1.80
2023-06-05T08:38:20.819Z,3.00
2023-06-05T08:40:54.107Z,6.00
2023-06-05T08:43:24.519Z,2.60
2023-06-05T08:45:58.001Z,3.00
2023-06-05T08:48:32.843Z,3.00
2023-06-05T08:51:03.121Z,3.00
2023-06-05T08:53:34.785Z,3.00
2023-06-05T08:56:05.557Z,4.60
2023-06-05T08:58:37.939Z,3.00
2023-06-05T09:01:08.390Z,3.60
2023-06-05T09:03:38.777Z,4.00
2023-06-05T09:06:11.682Z,4.00
2023-06-05T09:08:41.840Z,3.60
2023-06-05T09:11:26.927Z,2.20
2023-06-05T09:13:59.956Z,3.60
2023-06-05T09:16:41.757Z,5.00
2023-06-05T09:19:13.709Z,4.40
2023-06-05T09:24:51.935Z,4.00
2023-06-05T09:27:22.137Z,3.20
2023-06-05T09:29:55.415Z,5.00
2023-06-05T09:32:26.307Z,7.80
2023-06-05T09:34:57.680Z,5.00
2023-06-05T09:37:35.217Z,3.40
2023-06-05T09:40:06.656Z,5.00
2023-06-05T09:42:38.046Z,4.80
2023-06-05T09:45:29.032Z,3.20
2023-06-05T09:48:02.225Z,3.40
2023-06-05T09:50:35.355Z,4.00
2023-06-05T09:53:05.923Z,3.20
2023-06-05T09:55:37.408Z,3.20
2023-06-05T09:58:08.473Z,3.80
2023-06-05T10:00:44.045Z,4.80
2023-06-05T10:03:17.590Z,3.80
2023-06-05T10:05:49.560Z,1.80
2023-06-05T10:08:20.270Z,5.40
2023-06-05T10:10:50.718Z,3.80
2023-06-05T10:13:21.945Z,2.40
2023-06-05T10:15:55.449Z,3.20
2023-06-05T10:18:26.775Z,2.00
2023-06-05T10:20:59.717Z,3.80
2023-06-05T10:23:39.781Z,2.40
2023-06-05T10:26:16.587Z,5.00
2023-06-05T10:28:52.657Z,4.00
2023-06-05T10:31:25.778Z,5.20
2023-06-05T10:34:17.034Z,4.60
2023-06-05T10:37:19.222Z,1.00
2023-06-05T10:39:51.470Z,3.00
2023-06-05T10:42:26.924Z,3.80
2023-06-05T10:44:58.468Z,1.00
2023-06-05T10:47:39.737Z,3.00
2023-06-05T10:50:20.936Z,4.00
2023-06-05T10:52:52.982Z,3.00
2023-06-05T10:55:24.593Z,3.80
2023-06-05T10:58:12.400Z,3.00
2023-06-05T11:01:18.828Z,3.60
2023-06-05T11:03:55.047Z,4.00
2023-06-05T11:06:29.204Z,5.00
2023-06-05T11:09:16.362Z,3.00
2023-06-05T11:12:00.296Z,2.00
2023-06-05T11:14:52.028Z,2.40
2023-06-05T11:17:32.557Z,3.80
2023-06-05T11:20:31.595Z,3.00
2023-06-05T11:23:04.706Z,4.00
2023-06-05T11:25:36.431Z,3.00
2023-06-05T11:28:09.096Z,3.80
2023-06-05T11:30:47.794Z,3.20
2023-06-05T11:33:20.036Z,3.00
2023-06-05T11:35:52.733Z,2.60
2023-06-05T11:38:25.582Z,1.60
2023-06-05T11:40:56.347Z,4.60
2023-06-05T11:43:26.886Z,3.00
2023-06-05T11:45:59.112Z,2.00
2023-06-05T11:48:31.011Z,4.00
2023-06-05T11:51:03.722Z,4.00
2023-06-05T11:53:34.876Z,2.60
2023-06-05T11:56:08.953Z,3.00
2023-06-05T11:58:42.488Z,2.80
2023-06-05T12:01:23.960Z,3.80
2023-06-05T12:04:05.944Z,3.80
2023-06-05T12:06:45.494Z,3.40
2023-06-05T12:09:16.586Z,4.40
2023-06-05T12:11:47.499Z,3.20
2023-06-05T12:14:38.751Z,2.40
2023-06-05T12:17:13.017Z,3.00
2023-06-05T12:19:43.540Z,4.40
2023-06-05T12:22:14.796Z,2.40
2023-06-05T12:24:45.178Z,2.20
2023-06-05T12:27:15.622Z,3.00
2023-06-05T12:29:54.211Z,2.00
2023-06-05T12:32:27.405Z,2.00
2023-06-05T12:35:05.786Z,2.80
2023-06-05T12:37:37.146Z,1.60
2023-06-05T12:40:24.939Z,3.60
2023-06-05T12:42:48.884Z,3.60
2023-06-05T12:45:19.012Z,2.20
2023-06-05T12:47:51.406Z,4.00
2023-06-05T12:50:21.556Z,3.60
2023-06-05T12:52:52.101Z,4.00
2023-06-05T12:55:22.304Z,2.00
2023-06-05T12:57:52.747Z,2.80
2023-06-05T13:00:23.214Z,2.80
2023-06-05T13:02:53.746Z,1.80
2023-06-05T13:05:23.992Z,2.80
2023-06-05T13:07:54.174Z,5.00
2023-06-05T13:10:24.992Z,2.60
2023-06-05T13:12:55.251Z,3.20
2023-06-05T13:15:25.706Z,3.00
2023-06-05T13:17:56.142Z,1.40
2023-06-05T13:20:26.558Z,2.80
2023-06-05T13:22:56.739Z,2.00
2023-06-05T13:25:27.013Z,2.80
2023-06-05T13:27:57.491Z,3.40
2023-06-05T13:30:27.743Z,5.00
2023-06-05T13:32:57.968Z,2.40
2023-06-05T13:35:28.143Z,4.20
2023-06-05T13:37:59.789Z,3.40
2023-06-05T13:40:30.224Z,5.40
2023-06-05T13:43:00.930Z,3.60
2023-06-05T13:45:31.392Z,4.80
2023-06-05T13:48:01.725Z,3.00
2023-06-05T13:50:32.273Z,4.40
2023-06-05T13:53:02.518Z,4.00
2023-06-05T13:55:32.906Z,3.80
2023-06-05T13:58:03.492Z,4.40
2023-06-05T14:00:36.616Z,4.00
2023-06-05T14:03:06.957Z,4.00
2023-06-05T14:05:38.136Z,3.00
2023-06-05T14:08:08.268Z,2.20
2023-06-05T14:10:39.822Z,3.40
2023-06-05T14:13:10.598Z,3.20
2023-06-05T14:15:41.194Z,3.60
2023-06-05T14:18:11.596Z,5.40
2023-06-05T14:20:41.875Z,5.20
2023-06-05T14:23:12.353Z,4.20
2023-06-05T14:25:42.588Z,3.80
2023-06-05T14:28:13.336Z,4.60
2023-06-05T14:30:43.889Z,4.80
2023-06-05T14:33:14.081Z,2.80
2023-06-05T14:35:44.992Z,3.60
2023-06-05T14:38:15.466Z,5.00
2023-06-05T14:40:46.092Z,6.80
2023-06-05T14:43:16.367Z,5.00
2023-06-05T14:45:46.622Z,3.00
2023-06-05T14:48:16.870Z,4.60
2023-06-05T14:50:47.436Z,5.20
2023-06-05T14:53:21.269Z,5.20
2023-06-05T14:55:51.315Z,6.80
2023-06-05T14:58:21.844Z,3.20
2023-06-05T15:00:56.751Z,5.40
2023-06-05T15:03:24.360Z,5.40
2023-06-05T15:05:57.507Z,8.40
2023-06-05T15:08:28.859Z,3.80
2023-06-05T15:11:01.667Z,5.00
2023-06-05T15:13:32.175Z,7.20
2023-06-05T15:16:02.443Z,5.80
2023-06-05T15:18:33.384Z,6.00
2023-06-05T15:21:04.181Z,3.80
2023-06-05T15:23:34.647Z,6.40
2023-06-05T15:26:05.028Z,6.00
2023-06-05T15:28:35.452Z,6.00
2023-06-05T15:31:07.422Z,5.80
2023-06-05T15:33:42.675Z,5.60
2023-06-05T15:36:16.142Z,5.80
2023-06-05T15:38:47.969Z,6.20
2023-06-05T15:41:19.873Z,6.60
2023-06-05T15:43:50.807Z,4.40
2023-06-05T15:46:20.962Z,7.00
2023-06-05T15:48:51.546Z,6.20
2023-06-05T15:51:21.787Z,9.00
2023-06-05T15:53:59.562Z,6.60
2023-06-05T15:56:26.194Z,5.40
2023-06-05T15:58:56.445Z,4.00
2023-06-05T16:01:26.660Z,6.00
2023-06-05T16:03:56.895Z,6.60
2023-06-05T16:06:27.246Z,5.60
2023-06-05T16:08:57.688Z,6.00
2023-06-05T16:11:27.769Z,6.60
2023-06-05T16:13:58.154Z,8.00
2023-06-05T16:16:28.584Z,8.00
2023-06-05T16:18:59.582Z,9.00
2023-06-05T16:21:32.955Z,7.20
2023-06-05T16:24:06.394Z,7.80
2023-06-05T16:26:39.024Z,6.20
2023-06-05T16:29:11.176Z,6.80
2023-06-05T16:31:41.397Z,6.40
2023-06-05T16:34:13.969Z,7.00
2023-06-05T16:36:46.793Z,10.60
2023-06-05T16:39:17.406Z,5.80
2023-06-05T16:41:49.998Z,6.40
2023-06-05T16:44:21.785Z,7.20
2023-06-05T16:46:52.659Z,6.60
2023-06-05T16:49:24.628Z,6.60
2023-06-05T16:51:55.700Z,4.80
2023-06-05T16:54:28.230Z,4.00
2023-06-05T16:57:01.363Z,6.00
2023-06-05T16:59:31.920Z,6.60
2023-06-05T17:02:11.376Z,8.40
2023-06-05T17:04:42.473Z,8.00
2023-06-05T17:07:20.463Z,7.40
2023-06-05T17:09:55.889Z,9.40
2023-06-05T17:12:33.320Z,8.60
2023-06-05T17:15:08.767Z,6.00
2023-06-05T17:17:41.278Z,8.20
2023-06-05T17:20:14.823Z,6.80
2023-06-05T17:22:45.327Z,8.40
2023-06-05T17:25:15.688Z,7.60
2023-06-05T17:27:45.870Z,7.60
2023-06-05T17:30:17.686Z,8.00
2023-06-05T17:32:48.718Z,8.00
2023-06-05T17:35:21.013Z,8.00
2023-06-05T17:37:51.432Z,9.20
2023-06-05T17:40:22.648Z,8.60
2023-06-05T17:42:53.172Z,8.80
2023-06-05T17:45:23.472Z,7.40
2023-06-05T17:47:53.888Z,9.60
2023-06-05T17:50:24.130Z,7.20
2023-06-05T17:52:57.608Z,7.40
2023-06-05T17:55:36.214Z,9.00
2023-06-05T17:58:45.343Z,8.80
2023-06-05T18:01:13.009Z,11.60
2023-06-05T18:03:46.253Z,10.60
2023-06-05T18:06:20.186Z,9.40
2023-06-05T18:09:00.369Z,8.40
2023-06-05T18:11:33.174Z,10.60
2023-06-05T18:14:05.329Z,8.40
2023-06-05T18:16:36.256Z,12.00
2023-06-05T18:19:07.332Z,11.40
2023-06-05T18:21:37.588Z,10.00
2023-06-05T18:24:08.478Z,11.60
2023-06-05T18:26:38.968Z,10.60
2023-06-05T18:29:09.677Z,15.40
2023-06-05T18:31:40.471Z,11.20
2023-06-05T18:34:10.751Z,14.00
2023-06-05T18:36:43.120Z,14.00
2023-06-05T18:39:14.881Z,12.60
2023-06-05T18:41:47.024Z,11.20
2023-06-05T18:44:19.607Z,10.80
2023-06-05T18:46:50.150Z,14.20
2023-06-05T18:49:20.620Z,12.60
2023-06-05T18:51:50.862Z,15.00
2023-06-05T18:54:22.606Z,14.80
2023-06-05T18:56:53.014Z,15.40
2023-06-05T18:59:24.438Z,18.50
2023-06-05T19:01:54.693Z,20.00
2023-06-05T19:04:25.018Z,20.75
2023-06-05T19:06:55.452Z,32.75
2023-06-05T19:09:25.894Z,29.75
2023-06-05T19:11:56.282Z,39.00
2023-06-05T19:14:26.384Z,39.00
2023-06-05T19:16:56.667Z,50.00
2023-06-05T19:19:27.089Z,30.50
2023-06-05T19:21:57.758Z,46.50
2023-06-05T19:24:28.132Z,52.75
2023-06-05T19:26:58.303Z,53.75
2023-06-05T19:29:28.652Z,53.50
2023-06-05T19:31:59.135Z,55.25
2023-06-05T19:34:30.173Z,57.50
2023-06-05T19:37:00.475Z,55.00
2023-06-05T19:39:30.892Z,54.25
2023-06-05T19:42:01.524Z,52.25
2023-06-05T19:44:33.582Z,57.25
2023-06-05T19:47:04.098Z,58.50
2023-06-05T19:49:35.899Z,52.00
2023-06-05T19:52:06.418Z,51.00
2023-06-05T19:54:57.376Z,49.75
2023-06-05T19:57:30.143Z,46.75
2023-06-05T20:00:00.668Z,46.00
2023-06-05T20:02:31.015Z,39.25
2023-06-05T20:05:01.139Z,40.00
2023-06-05T20:07:31.850Z,38.00
2023-06-05T20:10:02.354Z,34.25
2023-06-05T20:12:33.185Z,30.00
2023-06-05T20:15:08.936Z,31.00
2023-06-05T20:17:39.700Z,33.25
2023-06-05T20:20:15.346Z,30.50
2023-06-05T20:22:46.324Z,28.50
2023-06-05T20:25:16.769Z,24.00
2023-06-05T20:27:52.946Z,19.50
2023-06-05T20:30:23.404Z,23.25
2023-06-05T20:32:54.617Z,19.50
2023-06-05T20:35:26.239Z,23.75
2023-06-05T20:37:56.662Z,21.25
2023-06-05T20:40:27.564Z,20.25
2023-06-05T20:42:59.260Z,17.75
2023-06-05T20:45:30.028Z,16.75
2023-06-05T20:48:04.101Z,19.25
2023-06-05T20:50:34.577Z,17.25
2023-06-05T20:53:04.894Z,16.75
2023-06-05T20:55:35.366Z,18.25
2023-06-05T20:58:07.414Z,18.00
2023-06-05T21:00:38.373Z,13.25
2023-06-05T21:03:08.802Z,18.00
2023-06-05T21:05:39.394Z,18.00
2023-06-05T21:08:15.684Z,13.50
2023-06-05T21:10:45.862Z,15.50
2023-06-05T21:13:16.273Z,16.00
2023-06-05T21:15:46.460Z,14.50
2023-06-05T21:18:16.966Z,14.75
2023-06-05T21:20:49.118Z,12.25
2023-06-05T21:23:22.437Z,12.50
2023-06-05T21:25:52.701Z,11.00
2023-06-05T21:28:23.399Z,12.25
2023-06-05T21:30:53.817Z,14.50
2023-06-05T21:33:24.021Z,14.50
2023-06-05T21:35:54.200Z,11.00
2023-06-05T21:38:24.429Z,11.50
2023-06-05T21:40:54.879Z,9.00
2023-06-05T21:43:25.199Z,14.00
2023-06-05T21:45:55.301Z,11.00
2023-06-05T21:48:25.869Z,13.00
2023-06-05T21:50:56.798Z,11.00
2023-06-05T21:53:27.502Z,11.00
2023-06-05T21:55:57.783Z,11.25
2023-06-05T21:58:28.100Z,7.75
2023-06-05T22:00:58.723Z,10.75
2023-06-05T22:03:29.466Z,8.25
2023-06-05T22:05:59.808Z,9.00
2023-06-05T22:08:30.061Z,8.50
2023-06-05T22:11:00.463Z,9.25
2023-06-05T22:13:31.194Z,8.50
2023-06-05T22:16:02.015Z,9.50
2023-06-05T22:18:32.443Z,9.25
2023-06-05T22:21:02.541Z,11.00
2023-06-05T22:23:33.282Z,10.50
2023-06-05T22:26:03.867Z,9.00
2023-06-05T22:28:36.180Z,10.75
2023-06-05T22:31:14.907Z,12.75
2023-06-05T22:33:50.378Z,10.00
2023-06-05T22:36:35.533Z,10.25
2023-06-05T22:39:05.839Z,9.75
2023-06-05T22:41:36.371Z,8.00
2023-06-05T22:44:06.574Z,10.00
2023-06-05T22:46:36.867Z,11.75
2023-06-05T22:49:07.603Z,9.50
2023-06-05T22:51:38.090Z,10.75
2023-06-05T22:54:08.337Z,10.25
2023-06-05T22:56:39.208Z,14.00
2023-06-05T22:59:09.430Z,11.50
2023-06-05T23:01:39.785Z,13.50
2023-06-05T23:04:30.821Z,14.25
2023-06-05T23:07:01.091Z,17.00
2023-06-05T23:09:31.665Z,17.25
2023-06-05T23:12:01.836Z,13.00
2023-06-05T23:14:34.020Z,24.25
2023-06-05T23:17:05.353Z,18.75
2023-06-05T23:19:36.187Z,22.25
2023-06-05T23:22:06.957Z,16.50
2023-06-05T23:24:37.154Z,18.00
2023-06-05T23:27:07.837Z,23.25
2023-06-05T23:29:38.073Z,22.00
2023-06-05T23:32:10.284Z,20.25
2023-06-05T23:34:40.604Z,20.00
2023-06-05T23:37:10.931Z,24.25
2023-06-05T23:39:41.376Z,21.50
2023-06-05T23:42:11.829Z,22.25
2023-06-05T23:44:42.507Z,26.00
2023-06-05T23:47:12.773Z,24.50
2023-06-05T23:49:43.140Z,25.25
2023-06-05T23:52:13.411Z,22.75
2023-06-05T23:54:43.720Z,23.75
2023-06-05T23:57:13.992Z,25.00
2023-06-05T23:59:44.240Z,24.00
